createdAt,value
2023-02-24T00:02:15.127Z,5.80
2023-02-24T00:04:42.576Z,5.80
2023-02-24T00:07:12.831Z,5.80
2023-02-24T00:09:40.235Z,5.90
2023-02-24T00:12:16.353Z,5.80
2023-02-24T00:14:45.358Z,5.80
2023-02-24T00:17:17.268Z,5.90
2023-02-24T00:19:46.617Z,5.90
2023-02-24T00:22:13.724Z,5.80
2023-02-24T00:24:48.599Z,5.80
2023-02-24T00:27:17.762Z,5.80
2023-02-24T00:29:46.498Z,5.80
2023-02-24T00:32:15.018Z,5.80
2023-02-24T00:34:43.371Z,5.80
2023-02-24T00:37:15.562Z,5.80
2023-02-24T00:39:44.367Z,5.80
2023-02-24T00:42:12.053Z,5.90
2023-02-24T00:44:41.900Z,5.90
2023-02-24T00:47:10.581Z,5.90
2023-02-24T00:49:43.465Z,5.90
2023-02-24T00:52:15.842Z,5.90
2023-02-24T00:54:44.210Z,5.90
2023-02-24T00:57:11.621Z,5.90
2023-02-24T00:59:39.306Z,5.90
2023-02-24T01:02:11.570Z,5.90
2023-02-24T01:04:41.032Z,5.90
2023-02-24T01:07:11.229Z,5.90
2023-02-24T01:09:41.053Z,5.90
2023-02-24T01:12:22.514Z,5.90
2023-02-24T01:14:52.333Z,5.90
2023-02-24T01:17:20.846Z,5.90
2023-02-24T01:19:49.857Z,5.90
2023-02-24T01:22:19.429Z,5.90
2023-02-24T01:24:46.973Z,6.00
2023-02-24T01:27:17.871Z,6.00
2023-02-24T01:29:48.571Z,6.00
2023-02-24T01:32:19.261Z,6.00
2023-02-24T01:34:47.373Z,6.00
2023-02-24T01:37:17.214Z,6.00
2023-02-24T01:39:45.418Z,6.00
2023-02-24T01:42:21.934Z,6.00
2023-02-24T01:44:49.138Z,6.00
2023-02-24T01:47:23.403Z,6.00
2023-02-24T01:49:54.594Z,6.00
2023-02-24T01:52:30.845Z,6.00
2023-02-24T01:55:04.050Z,6.10
2023-02-24T01:57:35.178Z,6.10
2023-02-24T02:00:11.309Z,6.10
2023-02-24T02:02:46.583Z,6.00
2023-02-24T02:05:14.877Z,6.10
2023-02-24T02:07:43.559Z,6.10
2023-02-24T02:10:13.573Z,6.10
2023-02-24T02:12:44.842Z,6.10
2023-02-24T02:15:20.382Z,6.10
2023-02-24T02:17:56.938Z,6.10
2023-02-24T02:20:56.020Z,6.10
2023-02-24T02:23:50.722Z,6.10
2023-02-24T02:26:26.974Z,6.10
2023-02-24T02:29:09.919Z,6.10
2023-02-24T02:31:58.247Z,6.10
2023-02-24T02:34:35.430Z,6.20
2023-02-24T02:37:14.755Z,6.20
2023-02-24T02:40:00.363Z,6.20
2023-02-24T02:42:38.343Z,6.20
2023-02-24T02:45:24.419Z,6.20
2023-02-24T02:47:58.495Z,6.20
2023-02-24T02:50:30.126Z,6.10
2023-02-24T02:53:10.819Z,6.10
2023-02-24T02:55:40.743Z,6.10
2023-02-24T02:58:14.884Z,6.10
2023-02-24T03:00:58.266Z,6.10
2023-02-24T03:03:28.096Z,6.10
2023-02-24T03:06:26.461Z,6.00
2023-02-24T03:09:02.474Z,6.00
2023-02-24T03:11:32.602Z,6.00
2023-02-24T03:14:02.831Z,6.00
2023-02-24T03:16:30.269Z,6.00
2023-02-24T03:19:04.080Z,6.00
2023-02-24T03:21:45.821Z,6.00
2023-02-24T03:24:15.616Z,6.00
2023-02-24T03:26:50.172Z,6.00
2023-02-24T03:29:33.597Z,5.90
2023-02-24T03:32:17.912Z,5.90
2023-02-24T03:35:04.378Z,5.90
2023-02-24T03:37:33.646Z,5.90
2023-02-24T03:40:11.373Z,5.90
2023-02-24T03:42:42.602Z,5.90
2023-02-24T03:45:10.294Z,5.90
2023-02-24T03:47:38.068Z,5.90
2023-02-24T03:50:23.283Z,5.90
2023-02-24T03:53:24.528Z,5.90
2023-02-24T03:56:13.311Z,5.90
2023-02-24T03:59:07.119Z,5.90
2023-02-24T04:01:42.421Z,5.90
2023-02-24T04:04:29.256Z,6.00
2023-02-24T04:07:04.825Z,6.00
2023-02-24T04:09:47.947Z,6.00
2023-02-24T04:12:29.633Z,6.00
2023-02-24T04:14:59.698Z,6.00
2023-02-24T04:17:40.328Z,6.00
2023-02-24T04:20:13.835Z,6.00
2023-02-24T04:22:44.691Z,6.00
2023-02-24T04:25:13.928Z,6.00
2023-02-24T04:27:42.972Z,6.00
2023-02-24T04:30:11.939Z,6.10
2023-02-24T04:32:42.943Z,6.00
2023-02-24T04:35:14.769Z,6.10
2023-02-24T04:37:45.775Z,6.10
2023-02-24T04:40:19.163Z,6.10
2023-02-24T04:42:49.278Z,6.10
2023-02-24T04:45:22.258Z,6.10
2023-02-24T04:47:51.440Z,6.10
2023-02-24T04:50:26.166Z,6.20
2023-02-24T04:52:57.079Z,6.20
2023-02-24T04:55:29.222Z,6.20
2023-02-24T04:57:59.373Z,6.20
2023-02-24T05:00:35.937Z,6.20
2023-02-24T05:03:08.108Z,6.20
2023-02-24T05:05:35.339Z,6.30
2023-02-24T05:08:10.532Z,6.30
2023-02-24T05:10:44.781Z,6.30
2023-02-24T05:13:27.919Z,6.30
2023-02-24T05:15:57.715Z,6.30
2023-02-24T05:18:25.697Z,6.30
2023-02-24T05:21:14.147Z,6.30
2023-02-24T05:23:44.795Z,6.30
2023-02-24T05:26:17.027Z,6.30
2023-02-24T05:28:49.323Z,6.30
2023-02-24T05:31:21.848Z,6.30
2023-02-24T05:33:50.302Z,6.30
2023-02-24T05:36:18.762Z,6.40
2023-02-24T05:38:56.584Z,6.40
2023-02-24T05:41:32.584Z,6.40
2023-02-24T05:44:02.557Z,6.40
2023-02-24T05:46:32.731Z,6.40
2023-02-24T05:49:03.583Z,6.40
2023-02-24T05:51:36.513Z,6.40
2023-02-24T05:54:08.854Z,6.40
2023-02-24T05:56:38.856Z,6.40
2023-02-24T05:59:11.349Z,6.40
2023-02-24T06:01:41.765Z,6.40
2023-02-24T06:04:10.250Z,6.40
2023-02-24T06:06:40.073Z,6.50
2023-02-24T06:09:13.365Z,6.50
2023-02-24T06:11:42.256Z,6.50
2023-02-24T06:14:11.695Z,6.50
2023-02-24T06:16:41.373Z,6.50
2023-02-24T06:19:11.591Z,6.50
2023-02-24T06:21:43.966Z,6.50
2023-02-24T06:24:14.629Z,6.60
2023-02-24T06:26:45.651Z,6.60
2023-02-24T06:29:15.196Z,6.60
2023-02-24T06:31:44.108Z,6.60
2023-02-24T06:34:13.223Z,6.60
2023-02-24T06:36:41.189Z,6.60
2023-02-24T06:39:09.378Z,6.60
2023-02-24T06:41:38.019Z,6.60
2023-02-24T06:44:05.200Z,6.60
2023-02-24T06:46:32.358Z,6.60
2023-02-24T06:48:59.472Z,6.70
2023-02-24T06:51:30.638Z,6.70
2023-02-24T06:53:59.603Z,6.70
2023-02-24T06:56:27.837Z,6.70
2023-02-24T06:58:56.905Z,6.70
2023-02-24T07:01:26.699Z,6.70
2023-02-24T07:04:07.863Z,6.70
2023-02-24T07:06:38.373Z,6.70
2023-02-24T07:09:13.818Z,6.70
2023-02-24T07:11:51.937Z,6.80
2023-02-24T07:14:20.877Z,6.80
2023-02-24T07:16:54.277Z,6.80
2023-02-24T07:19:24.970Z,6.80
2023-02-24T07:21:59.909Z,6.90
2023-02-24T07:24:39.860Z,6.80
2023-02-24T07:27:11.500Z,6.80
2023-02-24T07:29:39.724Z,6.80
2023-02-24T07:32:09.379Z,6.90
2023-02-24T07:34:40.416Z,6.80
2023-02-24T07:37:08.895Z,6.90
2023-02-24T07:39:37.613Z,6.90
2023-02-24T07:42:05.473Z,6.90
2023-02-24T07:44:33.189Z,6.90
2023-02-24T07:47:00.601Z,6.90
2023-02-24T07:49:30.343Z,6.90
2023-02-24T07:51:58.153Z,7.00
2023-02-24T07:54:30.169Z,7.00
2023-02-24T07:56:59.598Z,7.00
2023-02-24T07:59:29.887Z,7.00
2023-02-24T08:01:57.550Z,7.00
2023-02-24T08:04:30.303Z,7.10
2023-02-24T08:07:02.571Z,7.10
2023-02-24T08:09:45.204Z,7.10
2023-02-24T08:12:22.774Z,7.10
2023-02-24T08:14:53.586Z,7.10
2023-02-24T08:17:23.154Z,7.20
2023-02-24T08:20:11.606Z,7.20
2023-02-24T08:22:43.873Z,7.20
2023-02-24T08:25:18.503Z,7.20
2023-02-24T08:28:05.133Z,7.20
2023-02-24T08:30:38.987Z,7.30
2023-02-24T08:33:11.012Z,7.30
2023-02-24T08:35:44.574Z,7.40
2023-02-24T08:38:18.275Z,7.40
2023-02-24T08:40:54.543Z,7.40
2023-02-24T08:43:29.023Z,7.50
2023-02-24T08:45:57.698Z,7.50
2023-02-24T08:48:49.534Z,7.50
2023-02-24T08:51:23.699Z,7.50
2023-02-24T08:53:55.858Z,7.50
2023-02-24T08:56:30.074Z,7.50
2023-02-24T08:59:05.448Z,7.50
2023-02-24T09:01:36.617Z,7.40
2023-02-24T09:04:11.527Z,7.50
2023-02-24T09:06:45.615Z,7.50
2023-02-24T09:09:19.346Z,7.40
2023-02-24T09:11:56.160Z,7.50
2023-02-24T09:14:38.802Z,7.50
2023-02-24T09:17:13.814Z,7.50
2023-02-24T09:19:46.529Z,7.60
2023-02-24T09:22:31.909Z,7.60
2023-02-24T09:25:40.598Z,7.60
2023-02-24T09:28:19.639Z,7.60
2023-02-24T09:30:55.504Z,7.60
2023-02-24T09:33:37.142Z,7.60
2023-02-24T09:36:10.317Z,7.60
2023-02-24T09:38:59.431Z,7.70
2023-02-24T09:41:53.721Z,7.70
2023-02-24T09:44:37.462Z,7.70
2023-02-24T09:47:31.284Z,7.70
2023-02-24T09:50:14.216Z,7.70
2023-02-24T09:52:41.721Z,7.70
2023-02-24T09:55:27.070Z,7.70
2023-02-24T09:58:18.576Z,7.70
2023-02-24T10:01:21.103Z,7.70
2023-02-24T10:04:14.893Z,7.70
2023-02-24T10:06:57.697Z,7.70
2023-02-24T10:09:34.498Z,7.60
2023-02-24T10:12:34.183Z,7.60
2023-02-24T10:15:32.396Z,7.60
2023-02-24T10:18:27.448Z,7.60
2023-02-24T10:21:21.060Z,7.50
2023-02-24T10:24:03.663Z,7.50
2023-02-24T10:27:00.098Z,7.50
2023-02-24T10:29:47.425Z,7.40
2023-02-24T10:32:34.272Z,7.40
2023-02-24T10:35:02.253Z,7.30
2023-02-24T10:37:30.279Z,7.20
2023-02-24T10:40:00.557Z,7.10
2023-02-24T10:42:34.466Z,7.00
2023-02-24T10:45:20.689Z,7.00
2023-02-24T10:47:57.571Z,6.90
2023-02-24T10:50:55.184Z,6.90
2023-02-24T10:53:37.248Z,7.00
2023-02-24T10:56:15.256Z,7.00
2023-02-24T10:59:09.726Z,7.00
2023-02-24T11:02:03.155Z,7.10
2023-02-24T11:05:04.377Z,7.10
2023-02-24T11:07:46.479Z,7.10
2023-02-24T11:10:26.012Z,7.10
2023-02-24T11:13:15.888Z,7.10
2023-02-24T11:16:13.048Z,7.20
2023-02-24T11:18:46.315Z,7.20
2023-02-24T11:21:14.540Z,7.20
2023-02-24T11:23:46.388Z,7.30
2023-02-24T11:26:24.023Z,7.30
2023-02-24T11:28:57.726Z,7.40
2023-02-24T11:32:02.082Z,7.50
2023-02-24T11:35:13.946Z,7.60
2023-02-24T11:38:18.328Z,7.60
2023-02-24T11:40:53.470Z,7.80
2023-02-24T11:43:26.503Z,7.90
2023-02-24T11:46:14.163Z,7.90
2023-02-24T11:48:57.139Z,8.10
2023-02-24T11:51:34.244Z,8.20
2023-02-24T11:54:11.254Z,8.30
2023-02-24T11:56:45.359Z,8.30
2023-02-24T11:59:21.306Z,8.40
2023-02-24T12:01:55.363Z,8.40
2023-02-24T12:04:46.382Z,8.50
2023-02-24T12:07:30.659Z,8.50
2023-02-24T12:10:16.633Z,8.60
2023-02-24T12:13:06.006Z,8.70
2023-02-24T12:15:55.475Z,8.70
2023-02-24T12:18:33.338Z,8.70
2023-02-24T12:21:12.499Z,8.70
2023-02-24T12:23:45.104Z,8.70
2023-02-24T12:26:39.837Z,8.60
2023-02-24T12:29:16.181Z,8.50
2023-02-24T12:32:15.941Z,8.50
2023-02-24T12:35:07.427Z,8.40
2023-02-24T12:37:55.216Z,8.40
2023-02-24T12:40:29.785Z,8.30
2023-02-24T12:43:11.358Z,8.30
2023-02-24T12:45:38.626Z,8.20
2023-02-24T12:48:27.532Z,8.20
2023-02-24T12:50:59.593Z,8.20
2023-02-24T12:54:18.243Z,8.30
2023-02-24T12:57:18.922Z,8.30
2023-02-24T12:59:46.505Z,8.40
2023-02-24T13:02:43.415Z,8.40
2023-02-24T13:05:20.747Z,8.40
2023-02-24T13:08:09.163Z,8.50
2023-02-24T13:10:48.950Z,8.50
2023-02-24T13:13:24.666Z,8.50
2023-02-24T13:16:00.233Z,8.50
2023-02-24T13:18:36.478Z,8.50
2023-02-24T13:21:05.030Z,8.40
2023-02-24T13:23:32.735Z,8.50
2023-02-24T13:25:59.772Z,8.50
2023-02-24T13:28:28.201Z,8.70
2023-02-24T13:31:04.400Z,8.90
2023-02-24T13:33:40.325Z,9.00
2023-02-24T13:36:13.011Z,9.10
2023-02-24T13:38:44.289Z,9.20
2023-02-24T13:41:26.447Z,9.20
2023-02-24T13:44:00.630Z,9.30
2023-02-24T13:46:36.337Z,9.30
2023-02-24T13:49:42.320Z,9.30
2023-02-24T13:52:36.786Z,9.40
2023-02-24T13:55:12.803Z,9.60
2023-02-24T13:57:55.464Z,9.80
2023-02-24T14:00:44.999Z,9.90
2023-02-24T14:03:18.457Z,9.90
2023-02-24T14:05:45.618Z,9.80
2023-02-24T14:08:32.483Z,9.70
2023-02-24T14:11:03.133Z,9.60
2023-02-24T14:13:34.295Z,9.40
2023-02-24T14:16:06.738Z,9.40
2023-02-24T14:18:33.594Z,9.40
2023-02-24T14:21:00.584Z,9.40
2023-02-24T14:23:32.945Z,9.40
2023-02-24T14:26:03.153Z,9.30
2023-02-24T14:28:35.925Z,9.20
2023-02-24T14:31:14.191Z,9.20
2023-02-24T14:33:43.679Z,9.10
2023-02-24T14:36:42.646Z,9.10
2023-02-24T14:39:18.183Z,9.00
2023-02-24T14:41:46.482Z,8.90
2023-02-24T14:44:29.544Z,8.80
2023-02-24T14:46:59.140Z,8.70
2023-02-24T14:49:31.708Z,8.60
2023-02-24T14:52:03.520Z,8.50
2023-02-24T14:54:43.135Z,8.50
2023-02-24T14:57:15.497Z,8.40
2023-02-24T14:59:46.644Z,8.40
2023-02-24T15:02:19.785Z,8.30
2023-02-24T15:04:47.606Z,8.30
2023-02-24T15:07:22.252Z,8.20
2023-02-24T15:09:50.015Z,8.20
2023-02-24T15:12:22.751Z,8.20
2023-02-24T15:14:53.942Z,8.10
2023-02-24T15:17:22.792Z,8.10
2023-02-24T15:19:54.718Z,8.10
2023-02-24T15:22:21.631Z,8.00
2023-02-24T15:24:49.651Z,8.00
2023-02-24T15:27:16.532Z,8.00
2023-02-24T15:29:45.040Z,8.00
2023-02-24T15:32:21.295Z,7.90
2023-02-24T15:34:48.424Z,7.90
2023-02-24T15:37:24.637Z,7.90
2023-02-24T15:39:56.686Z,7.90
2023-02-24T15:42:32.484Z,7.80
2023-02-24T15:45:02.747Z,7.80
2023-02-24T15:47:44.523Z,7.80
2023-02-24T15:50:13.005Z,7.70
2023-02-24T15:52:41.568Z,7.70
2023-02-24T15:55:11.679Z,7.70
2023-02-24T15:57:38.582Z,7.60
2023-02-24T16:00:13.399Z,7.40
2023-02-24T16:02:41.446Z,7.20
2023-02-24T16:05:13.733Z,7.00
2023-02-24T16:07:43.331Z,6.80
2023-02-24T16:10:40.159Z,6.60
2023-02-24T16:13:08.743Z,6.40
2023-02-24T16:15:37.980Z,6.30
2023-02-24T16:18:14.149Z,6.20
2023-02-24T16:20:41.008Z,6.00
2023-02-24T16:23:07.819Z,5.90
2023-02-24T16:25:43.066Z,5.90
2023-02-24T16:28:21.022Z,5.80
2023-02-24T16:30:49.934Z,5.80
2023-02-24T16:33:18.327Z,5.70
2023-02-24T16:35:45.831Z,5.70
2023-02-24T16:38:15.234Z,5.60
2023-02-24T16:40:45.222Z,5.60
2023-02-24T16:43:13.363Z,5.50
2023-02-24T16:45:41.369Z,5.50
2023-02-24T16:48:20.196Z,5.50
2023-02-24T16:50:47.312Z,5.40
2023-02-24T16:53:20.137Z,5.40
2023-02-24T16:55:47.504Z,5.30
2023-02-24T16:58:15.165Z,5.30
2023-02-24T17:00:45.372Z,5.30
2023-02-24T17:03:25.873Z,5.20
2023-02-24T17:05:53.613Z,5.20
2023-02-24T17:08:21.300Z,5.20
2023-02-24T17:10:48.968Z,5.20
2023-02-24T17:13:18.239Z,5.10
2023-02-24T17:15:45.527Z,5.00
2023-02-24T17:18:12.839Z,5.00
2023-02-24T17:20:40.903Z,5.00
2023-02-24T17:23:07.797Z,4.90
2023-02-24T17:25:34.628Z,4.90
2023-02-24T17:28:01.933Z,5.00
2023-02-24T17:30:33.389Z,5.00
2023-02-24T17:33:01.297Z,5.00
2023-02-24T17:35:28.916Z,5.00
2023-02-24T17:37:56.249Z,5.00
2023-02-24T17:40:23.342Z,5.00
2023-02-24T17:42:50.262Z,5.10
2023-02-24T17:45:18.884Z,5.10
2023-02-24T17:47:45.705Z,5.20
2023-02-24T17:50:13.530Z,5.20
2023-02-24T17:52:40.824Z,5.20
2023-02-24T17:55:08.461Z,5.20
2023-02-24T17:57:35.992Z,5.30
2023-02-24T18:00:04.409Z,5.30
2023-02-24T18:02:31.300Z,5.30
2023-02-24T18:04:58.365Z,5.30
2023-02-24T18:07:25.345Z,5.30
2023-02-24T18:09:52.289Z,5.30
2023-02-24T18:12:20.876Z,5.30
2023-02-24T18:14:56.164Z,5.30
2023-02-24T18:17:29.933Z,5.30
2023-02-24T18:19:56.851Z,5.30
2023-02-24T18:22:23.716Z,5.30
2023-02-24T18:24:50.981Z,5.30
2023-02-24T18:27:18.293Z,5.30
2023-02-24T18:29:45.303Z,5.30
2023-02-24T18:32:12.337Z,5.20
2023-02-24T18:34:39.414Z,5.20
2023-02-24T18:37:06.245Z,5.20
2023-02-24T18:39:33.073Z,5.10
2023-02-24T18:41:59.896Z,5.10
2023-02-24T18:44:28.878Z,5.10
2023-02-24T18:46:56.031Z,5.00
2023-02-24T18:49:23.042Z,5.00
2023-02-24T18:51:49.880Z,5.00
2023-02-24T18:54:16.767Z,5.00
2023-02-24T18:56:43.697Z,4.90
2023-02-24T18:59:10.852Z,4.90
2023-02-24T19:01:39.921Z,4.90
2023-02-24T19:04:08.267Z,4.90
2023-02-24T19:06:35.814Z,4.80
2023-02-24T19:09:06.978Z,4.80
2023-02-24T19:11:34.460Z,4.70
2023-02-24T19:14:01.623Z,4.60
2023-02-24T19:16:28.863Z,4.60
2023-02-24T19:18:57.549Z,4.40
2023-02-24T19:21:26.051Z,4.40
2023-02-24T19:23:53.442Z,4.40
2023-02-24T19:26:23.830Z,4.40
2023-02-24T19:28:51.950Z,4.50
2023-02-24T19:31:25.235Z,4.50
2023-02-24T19:33:56.934Z,4.50
2023-02-24T19:36:24.282Z,4.50
2023-02-24T19:38:51.642Z,4.50
2023-02-24T19:41:18.590Z,4.50
2023-02-24T19:43:45.541Z,4.40
2023-02-24T19:46:14.002Z,4.40
2023-02-24T19:48:41.761Z,4.30
2023-02-24T19:51:17.309Z,4.30
2023-02-24T19:53:44.255Z,4.20
2023-02-24T19:56:11.159Z,4.20
2023-02-24T19:58:38.115Z,4.10
2023-02-24T20:01:09.700Z,4.10
2023-02-24T20:03:41.860Z,4.00
2023-02-24T20:06:25.060Z,4.00
2023-02-24T20:08:52.831Z,3.90
2023-02-24T20:11:20.721Z,3.80
2023-02-24T20:13:51.095Z,3.80
2023-02-24T20:16:20.093Z,3.80
2023-02-24T20:18:47.044Z,3.80
2023-02-24T20:21:14.370Z,3.80
2023-02-24T20:23:41.948Z,3.80
2023-02-24T20:26:11.093Z,3.90
2023-02-24T20:28:37.963Z,3.90
2023-02-24T20:31:10.945Z,4.00
2023-02-24T20:33:39.635Z,4.00
2023-02-24T20:36:08.998Z,4.10
2023-02-24T20:38:36.190Z,4.10
2023-02-24T20:41:03.762Z,4.10
2023-02-24T20:43:30.869Z,4.20
2023-02-24T20:45:58.495Z,4.30
2023-02-24T20:48:26.167Z,4.30
2023-02-24T20:50:52.999Z,4.40
2023-02-24T20:53:19.804Z,4.30
2023-02-24T20:55:46.596Z,4.40
2023-02-24T20:58:13.650Z,4.40
2023-02-24T21:00:40.640Z,4.40
2023-02-24T21:03:11.965Z,4.50
2023-02-24T21:05:40.119Z,4.50
2023-02-24T21:08:06.949Z,4.50
2023-02-24T21:10:33.826Z,4.50
2023-02-24T21:13:00.882Z,4.50
2023-02-24T21:15:27.771Z,4.50
2023-02-24T21:17:54.614Z,4.50
2023-02-24T21:20:21.489Z,4.50
2023-02-24T21:22:48.280Z,4.50
2023-02-24T21:25:15.095Z,4.50
2023-02-24T21:27:42.032Z,4.50
2023-02-24T21:30:09.675Z,4.50
2023-02-24T21:32:36.689Z,4.50
2023-02-24T21:35:04.239Z,4.50
2023-02-24T21:37:32.157Z,4.50
2023-02-24T21:40:00.043Z,4.50
2023-02-24T21:42:27.998Z,4.50
2023-02-24T21:45:02.309Z,4.50
2023-02-24T21:47:31.274Z,4.50
2023-02-24T21:49:58.096Z,4.50
2023-02-24T21:52:24.953Z,4.50
2023-02-24T21:54:53.030Z,4.50
2023-02-24T21:57:20.006Z,4.50
2023-02-24T21:59:46.922Z,4.50
2023-02-24T22:02:16.951Z,4.50
2023-02-24T22:04:45.073Z,4.50
2023-02-24T22:07:12.407Z,4.50
2023-02-24T22:09:39.542Z,4.50
2023-02-24T22:12:06.810Z,4.50
2023-02-24T22:14:33.661Z,4.50
2023-02-24T22:17:00.477Z,4.60
2023-02-24T22:19:27.364Z,4.60
2023-02-24T22:21:54.223Z,4.60
2023-02-24T22:24:21.268Z,4.60
2023-02-24T22:26:48.050Z,4.70
2023-02-24T22:29:14.870Z,4.70
2023-02-24T22:31:43.820Z,4.70
2023-02-24T22:34:11.090Z,4.70
2023-02-24T22:36:38.195Z,4.80
2023-02-24T22:39:06.734Z,4.80
2023-02-24T22:41:35.222Z,4.70
2023-02-24T22:44:04.202Z,4.80
2023-02-24T22:46:33.847Z,4.80
2023-02-24T22:49:01.102Z,4.80
2023-02-24T22:51:28.872Z,4.80
2023-02-24T22:53:56.514Z,4.80
2023-02-24T22:56:26.373Z,4.80
2023-02-24T22:58:53.290Z,4.80
2023-02-24T23:01:23.901Z,4.80
2023-02-24T23:03:51.235Z,4.80
2023-02-24T23:06:21.851Z,4.80
2023-02-24T23:08:50.587Z,4.80
2023-02-24T23:11:24.966Z,4.80
2023-02-24T23:13:52.440Z,4.80
2023-02-24T23:16:22.101Z,4.80
2023-02-24T23:18:50.926Z,4.80
2023-02-24T23:21:22.367Z,4.80
2023-02-24T23:23:52.781Z,4.70
2023-02-24T23:26:19.852Z,4.70
2023-02-24T23:28:48.028Z,4.70
2023-02-24T23:31:20.472Z,4.70
2023-02-24T23:33:47.991Z,4.70
2023-02-24T23:36:16.053Z,4.70
2023-02-24T23:38:43.972Z,4.70
2023-02-24T23:41:11.507Z,4.60
2023-02-24T23:43:39.029Z,4.60
2023-02-24T23:46:09.431Z,4.60
2023-02-24T23:48:37.270Z,4.60
2023-02-24T23:51:07.106Z,4.60
2023-02-24T23:53:43.039Z,4.60
2023-02-24T23:56:19.337Z,4.50
2023-02-24T23:58:55.553Z,4.50
